Time;durP1;ratioP1;P1;durP2;ratioP2;P2;SDS_P1;SDS_P2;PMS_P1;PMS_P2;Temp;Humidity;BMP_temperature;BMP_pressure;BME280_temperature;BME280_humidity;BME280_pressure;Samples;Min_cycle;Max_cycle;Signal;HPM_P1;HPM_P2
2022/11/16 00:00:35;;;;;;;103.03;65.38;;;8.60;76.00;;;;;;6054201;23;114079;-82
2022/11/16 00:03:03;;;;;;;101.50;62.90;;;8.60;76.10;;;;;;6054348;23;115115;-81
2022/11/16 00:05:33;;;;;;;99.38;61.38;;;8.60;76.00;;;;;;6051245;23;116010;-81
2022/11/16 00:08:00;;;;;;;93.97;61.65;;;8.60;75.90;;;;;;6075953;23;114762;-81
2022/11/16 00:10:27;;;;;;;100.93;64.32;;;8.60;75.90;;;;;;6053738;23;114095;-81
2022/11/16 00:12:53;;;;;;;112.63;69.78;;;8.60;76.00;;;;;;6053929;23;114477;-82
2022/11/16 00:15:20;;;;;;;108.43;69.15;;;8.60;76.20;;;;;;6052265;23;114811;-82
2022/11/16 00:17:47;;;;;;;105.50;69.10;;;8.60;76.20;;;;;;6051048;23;114614;-82
2022/11/16 00:20:15;;;;;;;113.50;71.55;;;8.60;76.20;;;;;;6052567;23;114690;-82
2022/11/16 00:22:42;;;;;;;127.43;80.82;;;8.60;76.30;;;;;;6053587;23;114333;-82
2022/11/16 00:25:09;;;;;;;114.25;73.97;;;8.60;76.30;;;;;;6052488;23;116688;-83
2022/11/16 00:27:36;;;;;;;112.10;72.32;;;8.60;76.10;;;;;;6052488;23;114689;-82
2022/11/16 00:30:03;;;;;;;101.95;68.50;;;8.60;76.20;;;;;;6053800;23;114273;-82
2022/11/16 00:32:31;;;;;;;114.90;72.50;;;8.60;76.20;;;;;;6054196;23;114261;-82
2022/11/16 00:34:58;;;;;;;116.57;77.25;;;8.60;76.20;;;;;;6052774;23;115973;-82
2022/11/16 00:37:25;;;;;;;113.03;74.35;;;8.60;76.20;;;;;;6052627;23;114535;-82
2022/11/16 00:39:52;;;;;;;119.50;79.28;;;8.60;76.20;;;;;;6052342;23;115322;-82
2022/11/16 00:42:19;;;;;;;114.70;74.68;;;8.60;76.30;;;;;;6053411;23;114426;-82
2022/11/16 00:44:46;;;;;;;123.97;79.97;;;8.60;76.30;;;;;;6052542;23;114769;-82
2022/11/16 00:47:13;;;;;;;114.20;74.93;;;8.50;76.40;;;;;;6051025;23;114519;-82
2022/11/16 00:49:40;;;;;;;123.43;80.75;;;8.60;76.40;;;;;;6052308;23;114120;-82
2022/11/16 00:52:07;;;;;;;112.65;72.85;;;8.60;76.50;;;;;;6052359;23;114316;-82
2022/11/16 00:54:34;;;;;;;131.77;84.97;;;8.60;76.40;;;;;;6050868;23;114948;-82
2022/11/16 00:57:01;;;;;;;122.40;78.88;;;8.50;76.40;;;;;;6051446;23;114706;-82
2022/11/16 00:59:28;;;;;;;112.45;75.53;;;8.60;76.50;;;;;;6052377;23;114735;-82
2022/11/16 01:01:57;;;;;;;124.05;77.82;;;8.60;76.50;;;;;;6076538;23;114780;-82
2022/11/16 01:04:24;;;;;;;143.20;87.63;;;8.50;76.50;;;;;;6074641;23;115641;-82
2022/11/16 01:06:51;;;;;;;120.15;78.53;;;8.50;76.50;;;;;;6052252;23;114605;-81
2022/11/16 01:09:18;;;;;;;114.40;74.55;;;8.50;76.40;;;;;;6052051;23;114125;-82
2022/11/16 01:14:32;;;;;;;108.38;69.22;;;8.40;76.40;;;;;;6050709;23;115296;-81
2022/11/16 01:16:59;;;;;;;109.28;73.25;;;8.40;76.60;;;;;;6052338;23;114651;-82
2022/11/16 01:19:26;;;;;;;107.60;70.32;;;8.30;76.70;;;;;;6053327;23;113967;-82
2022/11/16 01:21:53;;;;;;;113.13;73.53;;;8.30;76.70;;;;;;6052163;23;114387;-81
2022/11/16 01:24:21;;;;;;;104.35;70.15;;;8.40;76.50;;;;;;6051055;23;114759;-82
2022/11/16 01:26:48;;;;;;;108.90;70.20;;;8.40;76.40;;;;;;6050768;23;115259;-82
2022/11/16 01:29:15;;;;;;;108.85;70.97;;;8.40;76.60;;;;;;6051402;23;114850;-81
2022/11/16 01:31:47;;;;;;;112.32;69.45;;;8.40;76.50;;;;;;6029012;23;114267;-81
2022/11/16 01:34:15;;;;;;;109.90;70.35;;;8.40;76.50;;;;;;6050975;23;115437;-82
2022/11/16 01:36:42;;;;;;;104.43;65.82;;;8.30;76.40;;;;;;6075238;23;114628;-82
2022/11/16 01:39:13;;;;;;;110.55;64.60;;;8.30;76.40;;;;;;6075783;23;114280;-82
2022/11/16 01:41:45;;;;;;;107.97;68.82;;;8.30;76.40;;;;;;6052018;23;114050;-82
2022/11/16 01:44:30;;;;;;;109.78;69.72;;;8.30;76.40;;;;;;6060539;23;115852;-80
2022/11/16 01:47:09;;;;;;;145.50;83.55;;;8.30;76.50;;;;;;6079732;23;114748;-82
2022/11/16 01:49:42;;;;;;;153.90;87.40;;;8.20;76.50;;;;;;6051895;23;114491;-82
2022/11/16 01:52:12;;;;;;;154.27;86.22;;;8.20;76.50;;;;;;6051640;23;114184;-82
2022/11/16 01:54:40;;;;;;;117.72;70.65;;;8.20;76.60;;;;;;6050525;23;115318;-82
2022/11/16 01:57:10;;;;;;;119.50;71.05;;;8.10;76.50;;;;;;6050532;23;114539;-81
2022/11/16 01:59:40;;;;;;;94.93;57.58;;;8.10;76.50;;;;;;6052178;23;114206;-81
2022/11/16 02:02:13;;;;;;;98.47;61.07;;;8.00;76.40;;;;;;6028592;23;114497;-82
2022/11/16 02:04:40;;;;;;;95.75;58.40;;;7.90;76.60;;;;;;6075263;23;116889;-82
2022/11/16 02:09:52;;;;;;;94.65;56.42;;;7.90;76.60;;;;;;6051035;23;114982;-82
2022/11/16 02:10:39;;;;;;;94.93;56.88;;;7.90;76.70;;;;;;6032695;23;114314;-82
2022/11/16 02:13:18;;;;;;;91.95;55.47;;;8.00;76.60;;;;;;6052743;23;114329;-82
2022/11/16 02:15:48;;;;;;;81.65;50.25;;;7.90;76.50;;;;;;6075239;23;114763;-81
2022/11/16 02:18:39;;;;;;;84.85;50.30;;;7.90;76.20;;;;;;6075508;23;114820;-80
2022/11/16 02:21:06;;;;;;;;;;;7.90;76.20;;;;;;6051776;23;114435;-80
2022/11/16 02:24:09;;;;;;;76.97;46.03;;;7.90;76.00;;;;;;6054351;23;114512;-81
2022/11/16 02:26:59;;;;;;;74.80;45.88;;;7.90;76.20;;;;;;6052134;23;114775;-80
2022/11/16 02:29:27;;;;;;;73.35;45.28;;;7.90;76.20;;;;;;6053404;23;114516;-81
2022/11/16 02:32:20;;;;;;;70.45;44.88;;;7.90;76.20;;;;;;6077548;23;114497;-81
2022/11/16 02:35:17;;;;;;;64.35;41.00;;;7.90;76.00;;;;;;6057093;23;114075;-81
2022/11/16 02:37:47;;;;;;;67.95;42.28;;;7.90;76.00;;;;;;6052051;23;115976;-81
2022/11/16 02:40:15;;;;;;;64.88;40.70;;;7.90;75.90;;;;;;6052834;23;115029;-81
2022/11/16 02:42:51;;;;;;;66.72;41.45;;;7.90;75.80;;;;;;6053261;23;114518;-81
2022/11/16 02:45:23;;;;;;;63.30;39.67;;;8.00;75.60;;;;;;6028458;23;114428;-81
2022/11/16 02:47:51;;;;;;;60.88;39.15;;;8.00;75.40;;;;;;6051479;23;114937;-81
2022/11/16 02:50:20;;;;;;;64.43;41.10;;;8.00;75.50;;;;;;6052279;23;114567;-81
2022/11/16 02:52:47;;;;;;;66.50;41.70;;;8.00;75.30;;;;;;6005332;23;115358;-81
2022/11/16 02:55:14;;;;;;;69.00;42.30;;;8.00;75.40;;;;;;6053141;23;114224;-81
2022/11/16 02:57:54;;;;;;;59.95;37.50;;;8.00;75.30;;;;;;6052012;23;114900;-81
2022/11/16 03:00:23;;;;;;;65.20;40.40;;;8.10;75.20;;;;;;6054005;23;115033;-81
2022/11/16 03:02:53;;;;;;;69.47;43.90;;;8.10;75.30;;;;;;6053250;23;114783;-81
2022/11/16 03:05:31;;;;;;;67.55;41.63;;;8.10;75.30;;;;;;6052719;23;114347;-81
2022/11/16 03:08:13;;;;;;;72.22;43.55;;;8.10;75.30;;;;;;6051343;23;115438;-81
2022/11/16 03:13:59;;;;;;;73.85;43.90;;;8.10;75.30;;;;;;6026770;23;114349;-82
2022/11/16 03:16:26;;;;;;;;;;;8.10;75.50;;;;;;6029615;23;114289;-81
2022/11/16 03:18:55;;;;;;;61.42;38.35;;;8.00;75.20;;;;;;6063057;23;114861;-81
2022/11/16 03:21:48;;;;;;;64.53;39.08;;;8.00;75.50;;;;;;6051934;23;116151;-81
2022/11/16 03:24:17;;;;;;;59.60;35.88;;;8.10;75.30;;;;;;6053302;23;114487;-82
2022/11/16 03:27:05;;;;;;;68.80;40.05;;;8.00;75.30;;;;;;6076444;23;114402;-81
2022/11/16 03:29:41;;;;;;;67.13;39.13;;;8.00;75.50;;;;;;6054353;23;115167;-80
2022/11/16 03:32:28;;;;;;;63.70;39.35;;;8.00;75.50;;;;;;6052439;23;114472;-82
2022/11/16 03:35:29;;;;;;;67.20;37.17;;;8.00;75.50;;;;;;6054879;23;114397;-82
2022/11/16 03:37:56;;;;;;;65.03;39.03;;;8.00;75.20;;;;;;6046570;23;114360;-81
2022/11/16 03:40:25;;;;;;;60.78;35.63;;;7.90;75.50;;;;;;6064386;23;115099;-81
2022/11/16 03:42:52;;;;;;;65.70;36.53;;;7.90;75.50;;;;;;6057865;23;116899;-82
2022/11/16 03:45:19;;;;;;;67.20;38.58;;;7.90;75.60;;;;;;6054684;23;114036;-82
2022/11/16 03:47:48;;;;;;;59.70;36.88;;;7.90;75.60;;;;;;6029104;23;114852;-82
2022/11/16 03:50:15;;;;;;;68.60;39.17;;;7.90;75.60;;;;;;6051875;23;118047;-83
2022/11/16 03:52:42;;;;;;;57.58;36.22;;;8.00;75.50;;;;;;6053673;23;114527;-82
2022/11/16 03:55:11;;;;;;;67.35;39.08;;;8.00;75.50;;;;;;6053747;23;114535;-82
2022/11/16 03:57:42;;;;;;;66.18;36.58;;;8.00;75.50;;;;;;6028892;23;114376;-81
2022/11/16 04:00:09;;;;;;;61.15;35.88;;;8.00;75.50;;;;;;6051702;23;115281;-83
2022/11/16 04:02:41;;;;;;;63.88;35.72;;;8.10;75.40;;;;;;6051047;23;115380;-83
2022/11/16 04:25:09;;;;;;;64.95;36.50;;;8.10;75.10;;;;;;6053402;23;114639;-82
2022/11/16 04:30:22;;;;;;;68.70;36.85;;;8.00;75.10;;;;;;6052665;23;114997;-81
2022/11/16 04:38:20;;;;;;;60.95;34.70;;;8.10;75.10;;;;;;6052755;23;114605;-82
2022/11/16 04:40:47;;;;;;;62.47;35.45;;;8.10;75.10;;;;;;6053743;23;114297;-83
2022/11/16 04:43:14;;;;;;;63.85;36.30;;;8.10;75.00;;;;;;6027491;23;115409;-83
2022/11/16 04:48:36;;;;;;;54.20;32.80;;;8.20;74.80;;;;;;6052631;23;114145;-82
2022/11/16 04:51:03;;;;;;;64.32;35.10;;;8.10;74.60;;;;;;6053060;23;114221;-82
2022/11/16 04:53:31;;;;;;;53.15;32.45;;;8.20;74.70;;;;;;6051541;23;115081;-82
2022/11/16 04:56:11;;;;;;;63.70;36.70;;;8.20;74.40;;;;;;6051486;23;114788;-82
2022/11/16 04:58:38;;;;;;;61.92;34.47;;;8.20;74.60;;;;;;6051912;23;114390;-81
2022/11/16 05:01:05;;;;;;;69.45;37.33;;;8.20;74.50;;;;;;6052360;23;114354;-82
2022/11/16 05:03:32;;;;;;;65.63;37.78;;;8.20;74.80;;;;;;6051530;23;114934;-82
2022/11/16 05:06:00;;;;;;;69.85;37.40;;;8.20;74.70;;;;;;6051420;23;114559;-83
2022/11/16 05:08:28;;;;;;;68.22;37.80;;;8.20;74.70;;;;;;6052812;23;114175;-82
2022/11/16 05:10:55;;;;;;;58.22;34.65;;;8.20;74.70;;;;;;6076887;23;114190;-83
2022/11/16 05:13:22;;;;;;;65.13;35.97;;;8.20;74.40;;;;;;6052870;23;114786;-82
2022/11/16 05:15:50;;;;;;;66.35;34.88;;;8.20;74.40;;;;;;6050486;23;114666;-82
2022/11/16 05:18:17;;;;;;;61.28;36.38;;;8.20;74.50;;;;;;6051747;23;114456;-81
2022/11/16 05:21:00;;;;;;;71.43;39.22;;;8.20;74.70;;;;;;6051399;23;114402;-81
2022/11/16 05:26:20;;;;;;;71.50;39.20;;;8.20;74.40;;;;;;6074797;23;115597;-82
2022/11/16 05:28:48;;;;;;;70.13;39.80;;;8.20;74.70;;;;;;6075939;23;114382;-82
2022/11/16 05:31:15;;;;;;;70.43;40.28;;;8.20;74.70;;;;;;6051623;23;114409;-81
2022/11/16 05:33:42;;;;;;;61.97;36.67;;;8.20;74.60;;;;;;6050601;23;115302;-82
2022/11/16 05:36:12;;;;;;;80.03;45.63;;;8.20;74.30;;;;;;6074954;23;114767;-82
2022/11/16 05:38:39;;;;;;;87.07;47.35;;;8.20;74.40;;;;;;6054346;23;114355;-82
2022/11/16 05:41:07;;;;;;;69.82;40.05;;;8.20;74.50;;;;;;6053591;23;114536;-82
2022/11/16 05:43:34;;;;;;;70.65;43.40;;;8.20;74.30;;;;;;6051819;23;114749;-82
2022/11/16 05:46:13;;;;;;;75.38;43.42;;;8.20;74.50;;;;;;6050391;23;114634;-82
2022/11/16 05:48:40;;;;;;;80.95;44.63;;;8.20;74.50;;;;;;6075323;23;114332;-81
2022/11/16 05:51:07;;;;;;;66.78;40.08;;;8.20;74.70;;;;;;6051165;23;114180;-82
2022/11/16 05:53:34;;;;;;;69.90;41.10;;;8.20;74.60;;;;;;6049509;23;114644;-81
2022/11/16 05:56:02;;;;;;;81.00;43.35;;;8.20;74.70;;;;;;6073880;23;114658;-82
2022/11/16 05:58:32;;;;;;;65.25;40.67;;;8.20;74.80;;;;;;6052197;23;114152;-81
2022/11/16 06:01:04;;;;;;;76.38;42.40;;;8.20;74.70;;;;;;6052524;23;114626;-82
2022/11/16 06:03:31;;;;;;;77.07;42.40;;;8.20;74.80;;;;;;6051576;23;115407;-82
2022/11/16 06:05:59;;;;;;;80.35;44.65;;;8.20;74.90;;;;;;6052736;23;114761;-82
2022/11/16 06:08:28;;;;;;;77.68;43.50;;;8.20;74.80;;;;;;6053662;23;114175;-82
2022/11/16 06:11:02;;;;;;;79.68;44.17;;;8.20;74.90;;;;;;6053363;23;114256;-81
2022/11/16 06:13:30;;;;;;;81.50;44.10;;;8.20;75.10;;;;;;6076006;23;117918;-81
2022/11/16 06:15:59;;;;;;;75.10;41.60;;;8.20;74.90;;;;;;6052149;23;114607;-81
2022/11/16 06:18:28;;;;;;;73.53;42.50;;;8.20;74.80;;;;;;6053757;23;114550;-81
2022/11/16 06:20:55;;;;;;;72.07;41.42;;;8.20;74.90;;;;;;6053080;23;114525;-81
2022/11/16 06:23:22;;;;;;;70.05;39.88;;;8.20;74.80;;;;;;6051285;23;114975;-81
2022/11/16 06:25:55;;;;;;;81.57;43.17;;;8.20;74.80;;;;;;6051273;23;115916;-82
2022/11/16 06:28:25;;;;;;;65.07;36.70;;;8.20;75.00;;;;;;6052498;23;114356;-81
2022/11/16 06:30:52;;;;;;;77.13;42.03;;;8.20;74.60;;;;;;6053181;23;114338;-82
2022/11/16 06:33:21;;;;;;;80.53;45.60;;;8.20;74.70;;;;;;6051044;23;115593;-81
2022/11/16 06:35:48;;;;;;;66.18;38.33;;;8.20;74.80;;;;;;6051209;23;114630;-81
2022/11/16 06:38:19;;;;;;;86.78;43.65;;;8.20;74.70;;;;;;6053444;23;114522;-81
2022/11/16 06:40:50;;;;;;;69.10;40.78;;;8.20;74.90;;;;;;6052480;23;116118;-81
2022/11/16 06:43:17;;;;;;;82.20;43.78;;;8.20;74.70;;;;;;6028228;23;117765;-81
2022/11/16 06:45:51;;;;;;;74.65;40.25;;;8.20;74.90;;;;;;6051955;23;114709;-81
2022/11/16 06:48:18;;;;;;;;;;;8.20;74.70;;;;;;6053920;23;114223;-81
2022/11/16 06:50:46;;;;;;;78.72;42.25;;;8.20;74.60;;;;;;6077505;23;114341;-81
2022/11/16 06:53:14;;;;;;;89.32;44.85;;;8.10;75.10;;;;;;6051862;23;115201;-81
2022/11/16 06:55:42;;;;;;;77.40;41.83;;;8.20;75.20;;;;;;6052649;23;115581;-81
2022/11/16 06:58:12;;;;;;;72.13;38.67;;;8.20;75.10;;;;;;6053340;23;114123;-82
2022/11/16 07:00:43;;;;;;;79.15;43.83;;;8.20;74.80;;;;;;6077703;23;114035;-82
2022/11/16 07:03:11;;;;;;;86.70;42.58;;;8.20;75.00;;;;;;6052304;23;114774;-81
2022/11/16 07:05:39;;;;;;;88.07;45.42;;;8.20;75.00;;;;;;6052914;23;114775;-81
2022/11/16 07:08:10;;;;;;;72.65;37.78;;;8.20;75.10;;;;;;6052931;23;114259;-81
2022/11/16 07:10:38;;;;;;;82.35;40.70;;;8.20;75.10;;;;;;6052835;23;114386;-81
2022/11/16 07:13:06;;;;;;;82.82;40.97;;;8.10;75.20;;;;;;6053308;23;114969;-81
2022/11/16 07:15:35;;;;;;;84.55;44.08;;;8.10;75.50;;;;;;6051218;23;115177;-82
2022/11/16 07:18:04;;;;;;;85.15;43.38;;;8.10;75.60;;;;;;6028475;23;114243;-82
2022/11/16 07:20:36;;;;;;;84.65;42.45;;;8.20;75.70;;;;;;6030032;23;114289;-81
2022/11/16 07:23:04;;;;;;;80.45;41.80;;;8.20;75.60;;;;;;6081717;23;114737;-82
2022/11/16 07:25:35;;;;;;;77.38;40.53;;;8.20;75.60;;;;;;6076213;23;115023;-81
2022/11/16 07:28:05;;;;;;;75.10;40.08;;;8.20;75.50;;;;;;6052993;23;114324;-81
2022/11/16 07:30:32;;;;;;;91.80;42.50;;;8.20;75.50;;;;;;6051792;23;114236;-81
2022/11/16 07:33:05;;;;;;;82.43;42.45;;;8.10;75.60;;;;;;6026921;23;114821;-80
2022/11/16 07:36:06;;;;;;;82.35;39.92;;;8.10;75.70;;;;;;6051517;23;114639;-80
2022/11/16 07:38:33;;;;;;;83.13;40.97;;;8.10;75.70;;;;;;6066894;23;114057;-82
2022/11/16 07:41:06;;;;;;;83.55;40.92;;;8.20;75.70;;;;;;6052285;23;114399;-80
2022/11/16 07:43:36;;;;;;;81.93;40.80;;;8.20;75.80;;;;;;6051057;23;115076;-80
2022/11/16 07:46:16;;;;;;;85.43;41.33;;;8.20;75.70;;;;;;6073643;23;114690;-82
2022/11/16 07:49:04;;;;;;;83.30;42.17;;;8.20;75.70;;;;;;6008458;23;114276;-81
2022/11/16 07:52:09;;;;;;;87.53;42.28;;;8.30;75.70;;;;;;6047298;23;114265;-82
2022/11/16 07:54:56;;;;;;;83.60;42.55;;;8.30;75.70;;;;;;6051024;23;115314;-81
2022/11/16 07:57:26;;;;;;;86.03;43.10;;;8.40;75.60;;;;;;6076246;23;114806;-80
2022/11/16 07:59:56;;;;;;;84.95;42.47;;;8.40;75.50;;;;;;6052640;23;114280;-81
2022/11/16 08:02:23;;;;;;;88.32;45.50;;;8.50;75.50;;;;;;6052514;23;114419;-82
2022/11/16 08:04:53;;;;;;;87.97;45.55;;;8.50;75.50;;;;;;6028125;23;114908;-82
2022/11/16 08:07:25;;;;;;;85.13;43.72;;;8.50;75.80;;;;;;6076250;23;114727;-82
2022/11/16 08:09:55;;;;;;;90.03;44.97;;;8.60;75.90;;;;;;6052819;23;114345;-83
2022/11/16 08:12:23;;;;;;;85.28;45.10;;;8.60;75.80;;;;;;6077809;23;114265;-82
2022/11/16 08:14:51;;;;;;;95.63;47.63;;;8.60;75.60;;;;;;6027712;23;114880;-82
2022/11/16 08:17:18;;;;;;;84.82;45.25;;;8.60;75.50;;;;;;6051898;23;114639;-82
2022/11/16 08:19:46;;;;;;;85.70;46.42;;;8.60;75.90;;;;;;6051302;23;114351;-82
2022/11/16 08:22:14;;;;;;;88.20;46.05;;;8.70;75.90;;;;;;6052761;23;114333;-82
2022/11/16 08:24:43;;;;;;;84.30;45.45;;;8.70;75.50;;;;;;6052088;23;114920;-83
2022/11/16 08:27:11;;;;;;;85.53;47.08;;;8.70;75.50;;;;;;6051572;23;118286;-83
2022/11/16 08:29:39;;;;;;;85.90;44.50;;;8.70;75.30;;;;;;6077547;23;114315;-83
2022/11/16 08:32:08;;;;;;;84.80;43.67;;;8.70;75.20;;;;;;6052468;23;114195;-83
2022/11/16 08:34:35;;;;;;;76.93;42.47;;;8.80;75.20;;;;;;6052048;23;114896;-83
2022/11/16 08:37:03;;;;;;;77.45;42.30;;;8.80;75.10;;;;;;6052644;23;114590;-83
2022/11/16 08:39:38;;;;;;;77.10;42.90;;;8.80;75.00;;;;;;6053811;23;114525;-82
2022/11/16 08:42:05;;;;;;;78.75;44.42;;;8.80;74.90;;;;;;6051382;23;114837;-82
2022/11/16 08:44:32;;;;;;;83.53;42.17;;;8.80;74.90;;;;;;6051606;23;114835;-82
2022/11/16 08:47:03;;;;;;;78.63;40.72;;;8.80;75.00;;;;;;6051576;23;117166;-82
2022/11/16 08:49:41;;;;;;;75.18;38.30;;;8.80;74.90;;;;;;6051522;23;114473;-85
2022/11/16 08:52:15;;;;;;;75.32;39.85;;;8.90;75.00;;;;;;6051915;23;114543;-82
2022/11/16 08:54:43;;;;;;;73.22;38.55;;;8.90;74.90;;;;;;6051603;23;114813;-82
2022/11/16 08:57:10;;;;;;;70.82;37.25;;;8.90;74.70;;;;;;6051497;23;114572;-83
2022/11/16 08:59:39;;;;;;;83.80;40.30;;;8.90;74.60;;;;;;6051899;23;115061;-83
2022/11/16 09:02:11;;;;;;;77.25;39.58;;;8.90;74.70;;;;;;6053340;23;114186;-83
2022/11/16 09:04:39;;;;;;;72.55;38.25;;;9.00;74.60;;;;;;6050715;23;117885;-83
2022/11/16 09:07:06;;;;;;;84.05;39.47;;;9.00;74.70;;;;;;6052368;23;114920;-83
2022/11/16 09:09:33;;;;;;;84.25;40.78;;;9.00;74.60;;;;;;6051705;23;114401;-83
2022/11/16 09:12:00;;;;;;;85.28;41.33;;;9.10;74.80;;;;;;6076422;23;114325;-83
2022/11/16 09:14:29;;;;;;;64.60;36.17;;;9.10;74.50;;;;;;6051561;23;114770;-83
2022/11/16 09:16:56;;;;;;;68.32;38.10;;;9.10;74.40;;;;;;6056262;23;115293;-83
2022/11/16 09:19:23;;;;;;;81.88;37.95;;;9.10;74.50;;;;;;6054220;23;114422;-82
2022/11/16 09:21:50;;;;;;;71.10;37.90;;;9.10;74.50;;;;;;6053766;23;114332;-83
2022/11/16 09:24:17;;;;;;;68.20;36.28;;;9.20;74.50;;;;;;6026940;23;117976;-83
2022/11/16 09:26:44;;;;;;;65.82;35.40;;;9.20;74.30;;;;;;6052637;23;114596;-82
2022/11/16 09:29:12;;;;;;;64.07;36.13;;;9.20;74.20;;;;;;6052795;23;114193;-83
2022/11/16 09:31:39;;;;;;;56.55;34.17;;;9.20;74.00;;;;;;6051691;23;114186;-83
2022/11/16 09:34:06;;;;;;;60.70;34.45;;;9.20;73.80;;;;;;6025420;23;114909;-82
2022/11/16 09:36:34;;;;;;;67.18;34.75;;;9.20;73.80;;;;;;6075707;23;114537;-83
2022/11/16 09:39:01;;;;;;;60.92;32.13;;;9.30;73.80;;;;;;6053221;23;114251;-82
2022/11/16 09:41:56;;;;;;;46.55;27.33;;;9.30;73.90;;;;;;6062449;23;114513;-81
2022/11/16 09:44:36;;;;;;;49.50;29.45;;;9.30;73.40;;;;;;6061825;23;115112;-83
2022/11/16 09:47:03;;;;;;;46.97;27.00;;;9.30;73.50;;;;;;6053926;23;115920;-82
2022/11/16 09:49:34;;;;;;;44.20;28.08;;;9.30;73.30;;;;;;6051456;23;114761;-83
2022/11/16 09:52:04;;;;;;;47.78;27.85;;;9.40;73.10;;;;;;6052881;23;114294;-83
2022/11/16 09:54:34;;;;;;;43.97;27.20;;;9.40;73.20;;;;;;6051579;23;114819;-83
2022/11/16 09:57:03;;;;;;;48.55;28.48;;;9.50;73.00;;;;;;6050108;23;114706;-83
2022/11/16 09:59:40;;;;;;;50.90;28.02;;;9.50;72.80;;;;;;6051720;23;114478;-82
2022/11/16 10:02:13;;;;;;;43.28;26.48;;;9.50;72.70;;;;;;6050890;23;114426;-83
2022/11/16 10:04:55;;;;;;;45.53;26.98;;;9.50;72.50;;;;;;6051580;23;114877;-82
2022/11/16 10:07:27;;;;;;;42.60;26.95;;;9.50;72.30;;;;;;6051065;23;114566;-82
2022/11/16 10:09:54;;;;;;;42.33;24.73;;;9.50;72.40;;;;;;6053079;23;114116;-82
2022/11/16 10:12:33;;;;;;;41.95;24.25;;;9.50;72.20;;;;;;6027179;23;114467;-82
2022/11/16 10:15:18;;;;;;;41.05;24.00;;;9.60;72.20;;;;;;6050051;23;116150;-83
2022/11/16 10:18:12;;;;;;;42.70;23.92;;;9.50;72.20;;;;;;6051950;23;114659;-82
2022/11/16 10:20:45;;;;;;;39.47;23.92;;;9.60;71.90;;;;;;6049575;23;114602;-82
2022/11/16 10:23:43;;;;;;;42.90;24.48;;;9.60;72.00;;;;;;6050583;23;114221;-82
2022/11/16 10:26:26;;;;;;;39.28;24.08;;;9.60;71.80;;;;;;6050756;23;114785;-82
2022/11/16 10:29:18;;;;;;;42.75;24.52;;;9.60;71.80;;;;;;6050198;23;114883;-82
2022/11/16 10:31:50;;;;;;;42.53;24.02;;;9.60;71.70;;;;;;6052502;23;114123;-82
2022/11/16 10:34:21;;;;;;;41.97;24.42;;;9.60;71.80;;;;;;6051948;23;114710;-82
2022/11/16 10:36:48;;;;;;;40.67;24.75;;;9.60;71.50;;;;;;6051868;23;114767;-82
2022/11/16 10:39:16;;;;;;;39.00;23.88;;;9.60;71.30;;;;;;6049278;23;114567;-82
2022/11/16 10:41:49;;;;;;;41.53;24.80;;;9.60;71.50;;;;;;6051777;23;114577;-83
2022/11/16 10:44:28;;;;;;;45.25;27.15;;;9.60;71.40;;;;;;6051945;23;114491;-82
2022/11/16 10:47:37;;;;;;;44.67;27.17;;;9.60;71.40;;;;;;6053725;23;115157;-82
2022/11/16 10:50:21;;;;;;;43.42;25.27;;;9.50;71.50;;;;;;5976448;23;115172;-82
2022/11/16 10:52:48;;;;;;;43.95;26.42;;;9.50;71.40;;;;;;5969187;23;114529;-83
2022/11/16 10:55:15;;;;;;;43.55;26.35;;;9.50;71.70;;;;;;6016554;23;114351;-82
2022/11/16 10:57:56;;;;;;;46.33;26.20;;;9.60;71.80;;;;;;6050735;23;115486;-82
2022/11/16 11:00:47;;;;;;;40.70;24.27;;;9.70;71.70;;;;;;6052327;23;114529;-82
2022/11/16 11:03:27;;;;;;;40.72;24.95;;;9.70;71.50;;;;;;6053533;23;114446;-82
2022/11/16 11:05:58;;;;;;;41.85;25.25;;;9.70;71.60;;;;;;6051991;23;114313;-82
2022/11/16 11:08:32;;;;;;;39.22;22.42;;;9.70;71.70;;;;;;6075253;23;115707;-81
2022/11/16 11:28:52;;;;;;;40.35;24.42;;;9.60;71.00;;;;;;5855660;23;114724;-81
2022/11/16 11:31:24;;;;;;;40.10;23.17;;;9.50;71.50;;;;;;5833118;23;114453;-81
2022/11/16 11:33:56;;;;;;;40.78;24.42;;;9.50;71.30;;;;;;6022819;23;115043;-81
2022/11/16 11:36:32;;;;;;;37.40;24.77;;;9.60;71.30;;;;;;6050785;23;115536;-82
2022/11/16 11:39:07;;;;;;;39.67;24.65;;;9.70;71.00;;;;;;6050584;23;114730;-81
2022/11/16 11:41:39;;;;;;;41.42;23.95;;;9.70;71.00;;;;;;6052682;23;114414;-82
2022/11/16 11:44:12;;;;;;;38.45;22.80;;;9.70;70.90;;;;;;6029390;23;114727;-81
2022/11/16 11:46:43;;;;;;;43.37;24.23;;;9.70;71.10;;;;;;6052624;23;114448;-81
2022/11/16 11:49:33;;;;;;;36.13;21.58;;;9.70;70.90;;;;;;6050554;23;115218;-84
2022/11/16 11:52:11;;;;;;;35.50;21.80;;;9.70;70.90;;;;;;6051594;23;114931;-83
2022/11/16 11:54:41;;;;;;;36.85;22.73;;;9.70;70.70;;;;;;6051619;23;114404;-82
2022/11/16 11:57:19;;;;;;;40.78;23.20;;;9.70;70.70;;;;;;6027612;23;115041;-83
2022/11/16 11:59:46;;;;;;;39.28;23.00;;;9.70;70.70;;;;;;6050389;23;114843;-83
2022/11/16 12:02:26;;;;;;;40.72;23.95;;;9.70;70.60;;;;;;6051567;23;114453;-83
2022/11/16 12:05:21;;;;;;;37.00;21.73;;;9.70;70.60;;;;;;6051323;23;114316;-83
2022/11/16 12:08:23;;;;;;;36.17;22.33;;;9.70;70.50;;;;;;6050172;23;115063;-83
2022/11/16 12:10:54;;;;;;;39.40;23.02;;;9.70;70.60;;;;;;6046089;23;115293;-83
2022/11/16 12:13:31;;;;;;;40.78;23.45;;;9.70;70.60;;;;;;6051650;23;114546;-83
2022/11/16 12:16:36;;;;;;;36.03;22.65;;;9.70;70.30;;;;;;6053058;23;114169;-82
2022/11/16 12:19:22;;;;;;;42.50;23.97;;;9.70;70.20;;;;;;6050169;23;117686;-81
2022/11/16 12:22:10;;;;;;;39.50;23.60;;;9.70;70.40;;;;;;6052950;23;114668;-82
2022/11/16 12:24:55;;;;;;;39.38;23.30;;;9.70;70.50;;;;;;6052156;23;114552;-83
2022/11/16 12:27:36;;;;;;;44.58;26.98;;;9.70;70.50;;;;;;6054512;23;114458;-81
2022/11/16 12:30:10;;;;;;;48.75;28.92;;;9.70;70.50;;;;;;6051323;23;114836;-82
2022/11/16 12:33:20;;;;;;;53.58;29.85;;;9.60;70.50;;;;;;6051092;23;114641;-83
2022/11/16 12:35:53;;;;;;;53.03;31.15;;;9.60;70.50;;;;;;6047634;23;114541;-83
2022/11/16 12:38:53;;;;;;;55.83;34.03;;;9.40;70.80;;;;;;6054464;23;114159;-82
2022/11/16 12:41:47;;;;;;;57.80;34.03;;;9.20;71.10;;;;;;6052337;23;114860;-82
2022/11/16 12:44:33;;;;;;;63.20;34.33;;;9.20;71.50;;;;;;6052873;23;115778;-82
2022/11/16 12:47:26;;;;;;;61.60;34.60;;;9.10;71.70;;;;;;6053441;23;114497;-81
2022/11/16 12:50:03;;;;;;;60.35;34.08;;;9.10;71.80;;;;;;6028130;23;114555;-82
2022/11/16 12:53:09;;;;;;;53.97;31.88;;;9.10;71.90;;;;;;6053067;23;114773;-81
2022/11/16 12:55:52;;;;;;;48.67;29.98;;;9.10;71.90;;;;;;6047019;23;115172;-83
2022/11/16 12:58:58;;;;;;;50.17;29.63;;;9.00;72.00;;;;;;6052554;23;114329;-83
2022/11/16 13:01:40;;;;;;;45.80;27.30;;;9.00;72.10;;;;;;6052473;23;115114;-82
2022/11/16 13:04:33;;;;;;;38.03;23.10;;;9.00;72.20;;;;;;6051719;23;114845;-82
2022/11/16 13:07:09;;;;;;;38.40;22.20;;;9.10;72.00;;;;;;6050843;23;114624;-81
2022/11/16 13:09:44;;;;;;;37.72;21.80;;;9.00;72.20;;;;;;6052963;23;114400;-81
2022/11/16 13:12:14;;;;;;;34.78;20.77;;;9.00;72.00;;;;;;6052808;23;114553;-82
2022/11/16 13:14:43;;;;;;;33.42;20.45;;;8.90;72.00;;;;;;6050923;23;114858;-83
2022/11/16 13:17:19;;;;;;;40.55;22.48;;;8.90;72.30;;;;;;6027999;23;114602;-81
2022/11/16 13:20:17;;;;;;;33.58;20.23;;;8.90;72.50;;;;;;6052714;23;114471;-81
2022/11/16 13:22:50;;;;;;;36.60;23.25;;;9.00;72.40;;;;;;6076961;23;114229;-84
2022/11/16 13:25:25;;;;;;;32.77;21.07;;;9.00;72.70;;;;;;6052514;23;114927;-81
2022/11/16 13:27:55;;;;;;;38.25;21.77;;;9.00;72.40;;;;;;6051893;23;114542;-82
2022/11/16 13:30:24;;;;;;;38.08;22.98;;;8.90;72.50;;;;;;6053321;23;114142;-82
2022/11/16 13:33:09;;;;;;;39.78;23.85;;;8.90;72.50;;;;;;6029334;23;114474;-83
2022/11/16 13:35:37;;;;;;;39.45;24.00;;;8.90;72.50;;;;;;6053311;23;114841;-82
2022/11/16 13:38:07;;;;;;;40.80;25.05;;;8.90;72.60;;;;;;6053381;23;114375;-83
2022/11/16 13:40:34;;;;;;;38.28;23.27;;;8.90;72.70;;;;;;6052046;23;114479;-83
2022/11/16 13:43:06;;;;;;;45.72;26.27;;;8.90;72.80;;;;;;6052846;23;114458;-82
2022/11/16 13:45:49;;;;;;;39.47;25.35;;;8.90;72.90;;;;;;6051104;23;117793;-83
2022/11/16 13:48:33;;;;;;;44.03;27.58;;;9.00;72.90;;;;;;6057632;23;115428;-82
2022/11/16 13:51:14;;;;;;;48.92;28.17;;;8.90;73.00;;;;;;6053786;23;114219;-83
2022/11/16 13:53:49;;;;;;;44.33;25.60;;;9.00;73.20;;;;;;6052620;23;114492;-83